Time;durP1;ratioP1;P1;durP2;ratioP2;P2;SDS_P1;SDS_P2;PMS_P1;PMS_P2;Temp;Humidity;BMP_temperature;BMP_pressure;BME280_temperature;BME280_humidity;BME280_pressure;Samples;Min_cycle;Max_cycle;Signal;HPM_P1;HPM_P2
2023/04/25 00:00:18;;;;;;;9.97;6.67;;;9.30;99.90;;;;;;4442556;28;659205;-68
2023/04/25 00:03:08;;;;;;;10.60;6.20;;;9.30;99.90;;;;;;4430968;28;657924;-69
2023/04/25 00:05:56;;;;;;;10.40;5.97;;;9.20;99.90;;;;;;4430082;28;658746;-69
2023/04/25 00:08:44;;;;;;;12.50;6.10;;;9.20;99.90;;;;;;4446458;28;658621;-68
2023/04/25 00:11:31;;;;;;;8.60;5.77;;;9.10;99.90;;;;;;4417988;28;658075;-69
2023/04/25 00:14:18;;;;;;;8.70;6.30;;;9.20;99.90;;;;;;4438575;28;658737;-69
2023/04/25 00:17:05;;;;;;;8.57;6.43;;;9.20;99.90;;;;;;4431280;28;658990;-69
2023/04/25 00:19:54;;;;;;;11.70;6.70;;;9.20;99.90;;;;;;4442600;28;658336;-68
2023/04/25 00:22:41;;;;;;;7.87;5.47;;;9.00;99.90;;;;;;4424544;28;658716;-69
2023/04/25 00:25:28;;;;;;;8.80;5.63;;;9.00;99.90;;;;;;4442838;28;657958;-68
2023/04/25 00:28:16;;;;;;;8.30;5.47;;;9.00;99.90;;;;;;4426261;28;658332;-69
2023/04/25 00:31:03;;;;;;;9.30;5.40;;;9.00;99.90;;;;;;4442836;28;658622;-68
2023/04/25 00:33:50;;;;;;;11.50;5.33;;;9.00;99.90;;;;;;4421267;28;657672;-68
2023/04/25 00:36:39;;;;;;;9.97;5.17;;;9.00;99.90;;;;;;4440667;28;659143;-69
2023/04/25 00:39:26;;;;;;;9.80;5.73;;;9.00;99.90;;;;;;4435144;28;657739;-68
2023/04/25 00:42:13;;;;;;;11.82;6.10;;;8.90;99.90;;;;;;4439029;28;658602;-68
2023/04/25 00:45:00;;;;;;;7.90;4.90;;;8.90;99.90;;;;;;4425513;28;659028;-68
2023/04/25 00:47:48;;;;;;;11.93;5.70;;;8.90;99.90;;;;;;4455123;28;658026;-68
2023/04/25 00:50:35;;;;;;;10.53;6.10;;;8.90;99.90;;;;;;4430013;28;658432;-68
2023/04/25 00:53:24;;;;;;;12.43;6.83;;;9.00;99.90;;;;;;4444028;28;658730;-68
2023/04/25 00:56:11;;;;;;;14.47;6.57;;;9.00;99.90;;;;;;4428223;28;659099;-68
2023/04/25 00:58:59;;;;;;;17.40;6.83;;;9.00;99.90;;;;;;4454737;28;658652;-68
2023/04/25 01:01:46;;;;;;;14.93;7.27;;;8.90;99.90;;;;;;4423889;28;658390;-68
2023/04/25 01:04:33;;;;;;;13.97;7.13;;;8.90;99.90;;;;;;4447854;28;659119;-69
2023/04/25 01:07:20;;;;;;;12.97;6.70;;;8.90;99.90;;;;;;4430412;28;658793;-68
2023/04/25 01:10:10;;;;;;;16.70;7.77;;;9.00;99.90;;;;;;4459080;28;659726;-68
2023/04/25 01:12:57;;;;;;;16.63;8.43;;;8.90;99.90;;;;;;4428287;28;658895;-68
2023/04/25 01:15:44;;;;;;;16.83;7.80;;;8.90;99.90;;;;;;4455468;28;658465;-68
2023/04/25 01:18:31;;;;;;;14.80;7.33;;;8.90;99.90;;;;;;4411956;28;658579;-69
2023/04/25 01:21:20;;;;;;;19.40;7.20;;;8.90;99.90;;;;;;4444734;28;659504;-68
2023/04/25 01:24:07;;;;;;;18.27;7.73;;;8.90;99.90;;;;;;4426566;28;660230;-69
2023/04/25 01:26:56;;;;;;;18.43;8.07;;;8.90;99.90;;;;;;4440917;28;659401;-69
2023/04/25 01:29:43;;;;;;;20.87;8.70;;;9.00;99.90;;;;;;4453477;28;658991;-68
2023/04/25 01:32:37;;;;;;;15.90;8.43;;;8.90;99.90;;;;;;4419427;28;658525;-68
2023/04/25 01:35:25;;;;;;;21.63;8.90;;;8.90;99.90;;;;;;4419413;28;658870;-67
2023/04/25 01:38:15;;;;;;;21.70;9.47;;;8.90;99.90;;;;;;4413115;28;659617;-68
2023/04/25 01:41:02;;;;;;;18.00;9.60;;;9.00;99.90;;;;;;4418421;28;658718;-68
2023/04/25 01:43:50;;;;;;;15.97;9.13;;;9.00;99.90;;;;;;4437754;28;658396;-68
2023/04/25 01:46:37;;;;;;;15.83;9.77;;;9.00;99.90;;;;;;4442125;28;658413;-68
2023/04/25 01:49:25;;;;;;;16.57;10.80;;;9.00;99.90;;;;;;4443539;28;658900;-69
2023/04/25 01:52:12;;;;;;;19.27;10.87;;;9.00;99.90;;;;;;4450310;28;660089;-68
2023/04/25 01:55:02;;;;;;;19.40;11.70;;;9.00;99.90;;;;;;4433986;28;659451;-68
2023/04/25 01:57:49;;;;;;;19.13;11.13;;;9.00;99.90;;;;;;4416331;28;660158;-68
2023/04/25 02:00:37;;;;;;;24.73;12.40;;;9.10;99.90;;;;;;4424034;28;659654;-68
2023/04/25 02:03:25;;;;;;;24.27;13.57;;;9.10;99.90;;;;;;4444660;28;660266;-68
2023/04/25 02:06:12;;;;;;;23.50;13.53;;;9.00;99.90;;;;;;4362328;28;660349;-69
2023/04/25 02:09:00;;;;;;;21.60;13.43;;;9.00;99.90;;;;;;4256331;28;659540;-69
2023/04/25 02:11:49;;;;;;;20.47;13.33;;;9.00;99.90;;;;;;4276299;28;660055;-70
2023/04/25 02:14:36;;;;;;;23.87;14.73;;;9.00;99.90;;;;;;4413354;28;660216;-68
2023/04/25 02:17:23;;;;;;;26.90;14.47;;;9.00;99.90;;;;;;4434807;28;660107;-68
2023/04/25 02:20:12;;;;;;;25.77;14.63;;;8.90;99.90;;;;;;4411239;28;659722;-69
2023/04/25 02:22:59;;;;;;;31.33;16.33;;;8.90;99.90;;;;;;4437912;28;659843;-68
2023/04/25 02:25:46;;;;;;;27.53;14.03;;;8.90;99.90;;;;;;4406032;28;661572;-68
2023/04/25 02:28:35;;;;;;;26.90;15.47;;;9.00;99.90;;;;;;4426220;28;659628;-69
2023/04/25 02:31:22;;;;;;;27.30;14.83;;;8.90;99.90;;;;;;4405604;28;659848;-69
2023/04/25 02:34:10;;;;;;;28.50;15.63;;;8.80;99.90;;;;;;4436806;28;660907;-68
2023/04/25 02:36:57;;;;;;;25.63;15.30;;;8.80;99.90;;;;;;4437659;28;660714;-68
2023/04/25 02:39:45;;;;;;;24.50;14.67;;;8.70;99.90;;;;;;4434477;28;659923;-68
2023/04/25 02:42:32;;;;;;;24.77;14.03;;;8.70;99.90;;;;;;4435932;28;661415;-68
2023/04/25 02:45:22;;;;;;;23.40;14.10;;;8.60;99.90;;;;;;4437320;28;659663;-68
2023/04/25 02:48:09;;;;;;;25.73;13.90;;;8.60;99.90;;;;;;4412075;28;659791;-68
2023/04/25 02:50:56;;;;;;;25.87;14.47;;;8.60;99.90;;;;;;4414383;28;659977;-67
2023/04/25 02:53:44;;;;;;;28.07;15.27;;;8.60;99.90;;;;;;4436098;28;659399;-68
2023/04/25 02:56:31;;;;;;;26.63;16.00;;;8.60;99.90;;;;;;4417451;28;660013;-68
2023/04/25 02:59:18;;;;;;;25.70;15.40;;;8.50;99.90;;;;;;4437730;28;660685;-68
2023/04/25 03:02:07;;;;;;;23.93;14.90;;;8.50;99.90;;;;;;4417532;28;659635;-68
2023/04/25 03:04:54;;;;;;;23.87;14.30;;;8.50;99.90;;;;;;4425331;28;659962;-68
2023/04/25 03:07:43;;;;;;;26.07;14.10;;;8.50;99.90;;;;;;4416442;28;659947;-68
2023/04/25 03:10:30;;;;;;;23.63;14.15;;;8.40;99.90;;;;;;4419428;28;659776;-68
2023/04/25 03:13:17;;;;;;;20.27;12.50;;;8.30;99.90;;;;;;4435537;28;660713;-68
2023/04/25 03:16:06;;;;;;;20.90;12.53;;;8.30;99.90;;;;;;4435618;28;660035;-69
2023/04/25 03:18:54;;;;;;;22.75;13.57;;;8.30;99.90;;;;;;4454836;28;659073;-67
2023/04/25 03:21:41;;;;;;;22.20;13.23;;;8.30;99.90;;;;;;4425791;28;660159;-68
2023/04/25 03:24:29;;;;;;;19.80;12.53;;;8.20;99.90;;;;;;4451337;28;659393;-68
2023/04/25 03:27:16;;;;;;;21.30;12.93;;;8.20;99.90;;;;;;4429524;28;659533;-67
2023/04/25 03:30:04;;;;;;;26.43;13.13;;;8.20;99.90;;;;;;4436036;28;659569;-68
2023/04/25 03:32:51;;;;;;;21.00;13.47;;;8.10;99.90;;;;;;4417949;28;659349;-68
2023/04/25 03:35:39;;;;;;;21.77;13.40;;;8.10;99.90;;;;;;4437315;28;660499;-68
2023/04/25 03:38:27;;;;;;;21.03;12.40;;;8.10;99.90;;;;;;4419217;28;660686;-68
2023/04/25 03:41:14;;;;;;;21.67;12.90;;;8.10;99.90;;;;;;4432483;28;660519;-68
2023/04/25 03:44:01;;;;;;;23.03;14.87;;;8.20;99.90;;;;;;4433458;28;660245;-68
2023/04/25 03:46:48;;;;;;;25.73;15.27;;;8.10;99.90;;;;;;4442730;28;660402;-68
2023/04/25 03:49:35;;;;;;;25.27;16.90;;;8.10;99.90;;;;;;4417387;28;659592;-68
2023/04/25 03:52:24;;;;;;;26.37;16.57;;;8.10;99.90;;;;;;4446560;28;661364;-67
2023/04/25 03:55:11;;;;;;;30.25;17.92;;;8.10;99.90;;;;;;4419850;28;660134;-68
2023/04/25 03:57:59;;;;;;;30.57;18.17;;;8.00;99.90;;;;;;4444459;28;659970;-68
2023/04/25 04:00:46;;;;;;;27.83;17.80;;;8.10;99.90;;;;;;4423637;28;660179;-68
2023/04/25 04:03:33;;;;;;;28.30;17.07;;;8.10;99.90;;;;;;4449417;28;659827;-69
2023/04/25 04:06:20;;;;;;;25.65;16.10;;;8.10;99.90;;;;;;4424659;28;659932;-69
2023/04/25 04:09:11;;;;;;;22.30;14.23;;;8.10;99.90;;;;;;4452488;28;659833;-68
2023/04/25 04:11:58;;;;;;;23.13;14.37;;;8.00;99.90;;;;;;4429135;28;659691;-68
2023/04/25 04:14:45;;;;;;;23.88;14.10;;;8.00;99.90;;;;;;4424276;28;659466;-68
2023/04/25 04:17:32;;;;;;;19.63;12.17;;;8.00;99.90;;;;;;4437508;28;660020;-68
2023/04/25 04:20:20;;;;;;;20.10;12.90;;;7.80;99.90;;;;;;4436022;28;660007;-68
2023/04/25 04:23:07;;;;;;;22.67;14.70;;;7.80;99.90;;;;;;4439600;28;660384;-68
2023/04/25 04:25:57;;;;;;;20.30;12.47;;;7.80;99.90;;;;;;4442175;28;660232;-69
2023/04/25 04:28:44;;;;;;;17.87;9.83;;;7.80;99.90;;;;;;4445838;28;659697;-68
2023/04/25 04:31:32;;;;;;;14.43;9.70;;;7.80;99.90;;;;;;4424540;28;658449;-68
2023/04/25 04:34:19;;;;;;;16.03;10.23;;;7.70;99.90;;;;;;4443568;28;659316;-69
2023/04/25 04:37:07;;;;;;;19.03;9.93;;;7.60;99.90;;;;;;4434730;28;660557;-67
2023/04/25 04:39:54;;;;;;;14.07;9.40;;;7.50;99.90;;;;;;4447974;28;658512;-68
2023/04/25 04:42:42;;;;;;;13.30;8.60;;;7.50;99.90;;;;;;4424772;28;658820;-68
2023/04/25 04:45:30;;;;;;;11.70;7.03;;;7.60;99.90;;;;;;4454627;28;658792;-69
2023/04/25 04:48:18;;;;;;;9.10;5.60;;;7.60;99.90;;;;;;4456029;28;659192;-67
2023/04/25 04:51:05;;;;;;;12.20;7.27;;;7.50;99.90;;;;;;4428867;28;657829;-68
2023/04/25 04:53:52;;;;;;;13.90;9.10;;;7.50;99.90;;;;;;4439963;28;659170;-67
2023/04/25 04:56:41;;;;;;;15.97;9.23;;;7.50;99.90;;;;;;4436695;28;659233;-69
2023/04/25 04:59:30;;;;;;;13.77;9.47;;;7.50;99.90;;;;;;4445186;28;659509;-67
2023/04/25 05:02:17;;;;;;;16.97;10.60;;;7.50;99.90;;;;;;4430084;28;659557;-68
2023/04/25 05:05:05;;;;;;;18.00;11.03;;;7.50;99.90;;;;;;4445063;28;659229;-68
2023/04/25 05:07:52;;;;;;;17.40;11.03;;;7.60;99.90;;;;;;4407018;28;661113;-68
2023/04/25 05:10:39;;;;;;;23.23;12.60;;;7.60;99.90;;;;;;4442201;28;659792;-68
2023/04/25 05:13:26;;;;;;;22.27;13.70;;;7.60;99.90;;;;;;4426846;28;660588;-68
2023/04/25 05:16:15;;;;;;;22.33;13.20;;;7.70;99.90;;;;;;4448037;28;659568;-67
2023/04/25 05:19:02;;;;;;;21.90;12.07;;;7.60;99.90;;;;;;4434019;28;660202;-68
2023/04/25 05:21:49;;;;;;;21.07;12.40;;;7.50;99.90;;;;;;4456758;28;659510;-67
2023/04/25 05:24:37;;;;;;;20.17;12.07;;;7.60;99.90;;;;;;4423285;28;660053;-69
2023/04/25 05:27:24;;;;;;;18.53;11.30;;;7.60;99.90;;;;;;4440102;28;661390;-75
2023/04/25 05:30:12;;;;;;;16.57;9.77;;;7.70;99.90;;;;;;4415986;28;659635;-76
2023/04/25 05:33:01;;;;;;;18.50;10.30;;;7.60;99.90;;;;;;4451603;28;658036;-74
2023/04/25 05:35:48;;;;;;;15.40;9.80;;;7.60;99.90;;;;;;4423585;28;659859;-75
2023/04/25 05:38:35;;;;;;;15.23;9.63;;;7.60;99.90;;;;;;4426478;28;658813;-75
2023/04/25 05:41:22;;;;;;;16.73;9.80;;;7.60;99.90;;;;;;4454541;28;659843;-75
2023/04/25 05:44:10;;;;;;;14.87;9.07;;;7.60;99.90;;;;;;4434000;28;659446;-75
2023/04/25 05:46:57;;;;;;;14.70;9.47;;;7.70;99.90;;;;;;4441180;28;659280;-75
2023/04/25 05:49:47;;;;;;;20.27;10.10;;;7.80;99.90;;;;;;4432806;28;659350;-75
2023/04/25 05:52:34;;;;;;;13.77;9.00;;;7.70;99.90;;;;;;4454381;28;659751;-76
2023/04/25 05:55:21;;;;;;;13.82;8.60;;;7.60;99.90;;;;;;4436504;28;658883;-75
2023/04/25 05:58:08;;;;;;;15.60;8.70;;;7.70;99.90;;;;;;4455134;28;658811;-75
2023/04/25 06:00:56;;;;;;;13.77;7.90;;;7.70;99.90;;;;;;4430857;27;658500;-75
2023/04/25 06:03:43;;;;;;;13.00;7.27;;;7.60;99.90;;;;;;4455566;28;659383;-75
2023/04/25 06:06:32;;;;;;;16.03;8.50;;;7.60;99.90;;;;;;4437200;28;658436;-75
2023/04/25 06:09:19;;;;;;;13.10;7.90;;;7.50;99.90;;;;;;4455084;28;658303;-76
2023/04/25 06:12:06;;;;;;;18.07;8.67;;;7.50;99.90;;;;;;4417166;28;658627;-75
2023/04/25 06:14:54;;;;;;;12.77;8.03;;;7.60;99.90;;;;;;4431688;28;658822;-74
2023/04/25 06:17:41;;;;;;;12.77;8.27;;;7.70;99.90;;;;;;4414756;28;658755;-75
2023/04/25 06:20:28;;;;;;;15.30;8.50;;;7.80;99.90;;;;;;4432287;28;659098;-75
2023/04/25 06:23:17;;;;;;;16.60;9.40;;;7.90;99.90;;;;;;4415614;28;658740;-75
2023/04/25 06:26:04;;;;;;;14.07;9.40;;;8.00;99.90;;;;;;4438978;28;658683;-75
2023/04/25 06:28:51;;;;;;;15.07;9.33;;;8.00;99.90;;;;;;4409876;28;658765;-75
2023/04/25 06:31:39;;;;;;;17.57;9.33;;;7.80;99.90;;;;;;4441722;28;658843;-74
2023/04/25 06:34:26;;;;;;;16.23;9.10;;;7.90;99.90;;;;;;4417916;28;658657;-75
2023/04/25 06:37:13;;;;;;;13.07;9.13;;;7.70;99.90;;;;;;4439158;28;658453;-75
2023/04/25 06:40:02;;;;;;;13.03;6.60;;;7.70;99.90;;;;;;4416429;28;658395;-74
2023/04/25 06:42:49;;;;;;;12.60;6.97;;;7.80;99.90;;;;;;4440108;28;658340;-75
2023/04/25 06:45:36;;;;;;;12.17;8.00;;;7.90;99.90;;;;;;4414900;28;659254;-74
2023/04/25 06:48:24;;;;;;;10.63;7.47;;;8.00;99.90;;;;;;4441590;28;659206;-74
2023/04/25 06:51:12;;;;;;;10.87;7.20;;;7.90;99.90;;;;;;4415447;28;660621;-75
2023/04/25 06:54:00;;;;;;;10.80;6.83;;;7.90;99.90;;;;;;4432103;28;664327;-74
2023/04/25 06:56:49;;;;;;;10.13;7.00;;;7.90;99.90;;;;;;4438535;28;659786;-75
2023/04/25 06:59:36;;;;;;;11.93;8.07;;;8.00;99.90;;;;;;4412377;28;658756;-74
2023/04/25 07:02:24;;;;;;;13.73;8.07;;;7.90;99.90;;;;;;4424325;28;659283;-75
2023/04/25 07:05:11;;;;;;;13.33;8.30;;;8.00;99.90;;;;;;4415529;28;658762;-75
2023/04/25 07:07:58;;;;;;;12.40;9.13;;;8.00;99.90;;;;;;4438736;28;659460;-75
2023/04/25 07:10:45;;;;;;;18.63;9.37;;;8.20;99.90;;;;;;4413047;28;659522;-74
2023/04/25 07:13:34;;;;;;;11.83;7.90;;;8.00;99.90;;;;;;4440354;28;659153;-74
2023/04/25 07:16:21;;;;;;;11.80;8.40;;;8.00;99.90;;;;;;4423517;28;658847;-74
2023/04/25 07:19:09;;;;;;;10.07;6.43;;;7.90;99.90;;;;;;4445489;28;659186;-74
2023/04/25 07:21:56;;;;;;;13.23;7.07;;;7.80;99.90;;;;;;4432760;28;659159;-75
2023/04/25 07:24:47;;;;;;;11.70;7.07;;;8.00;99.90;;;;;;4458877;28;659204;-76
2023/04/25 07:27:34;;;;;;;8.90;6.57;;;8.10;99.90;;;;;;4426773;28;658841;-74
2023/04/25 07:30:23;;;;;;;8.97;6.47;;;8.10;99.90;;;;;;4429338;28;657319;-75
2023/04/25 07:33:10;;;;;;;12.10;6.93;;;8.30;99.90;;;;;;4438154;28;657418;-74
2023/04/25 07:35:57;;;;;;;14.50;7.30;;;8.40;99.90;;;;;;4443256;28;659564;-75
2023/04/25 07:38:45;;;;;;;12.07;7.37;;;8.30;99.90;;;;;;4446271;28;658701;-75
2023/04/25 07:41:32;;;;;;;13.23;7.73;;;8.40;99.90;;;;;;4447887;28;658934;-74
2023/04/25 07:44:20;;;;;;;14.03;7.80;;;8.30;99.90;;;;;;4425001;28;658751;-75
2023/04/25 07:47:09;;;;;;;13.47;8.37;;;8.50;99.90;;;;;;4440532;28;659311;-75
2023/04/25 07:49:57;;;;;;;14.88;9.82;;;8.30;99.90;;;;;;4418609;28;658657;-74
2023/04/25 07:52:44;;;;;;;16.33;8.70;;;8.30;99.90;;;;;;4438211;28;658777;-75
2023/04/25 07:55:32;;;;;;;16.20;9.23;;;8.30;99.90;;;;;;4413205;28;660094;-75
2023/04/25 07:58:21;;;;;;;18.37;8.20;;;8.50;99.90;;;;;;4442563;28;658242;-75
2023/04/25 08:01:08;;;;;;;12.87;6.37;;;8.70;99.90;;;;;;4419734;28;658942;-75
2023/04/25 08:03:57;;;;;;;8.07;5.37;;;8.80;99.90;;;;;;4411315;28;658634;-74
2023/04/25 08:06:45;;;;;;;10.40;5.37;;;8.60;99.90;;;;;;4440716;28;657855;-75
2023/04/25 08:09:34;;;;;;;8.33;5.13;;;8.60;99.90;;;;;;4253873;28;659899;-73
2023/04/25 08:12:21;;;;;;;8.63;5.15;;;8.70;99.90;;;;;;4253624;28;658012;-73
2023/04/25 08:15:09;;;;;;;12.63;4.83;;;9.00;99.90;;;;;;4377214;28;658553;-74
2023/04/25 08:17:56;;;;;;;12.87;5.30;;;9.20;99.90;;;;;;4426063;28;659307;-74
2023/04/25 08:20:45;;;;;;;12.57;4.67;;;9.10;99.90;;;;;;4452456;28;659824;-74
2023/04/25 08:23:32;;;;;;;11.83;5.20;;;9.10;99.90;;;;;;4436069;28;659776;-74
2023/04/25 08:26:20;;;;;;;8.30;5.33;;;9.40;99.90;;;;;;4454543;28;658786;-75
2023/04/25 08:29:07;;;;;;;8.70;4.03;;;9.50;99.90;;;;;;4449368;28;658862;-73
2023/04/25 08:31:55;;;;;;;7.03;4.67;;;9.20;99.90;;;;;;4455352;28;657595;-74
2023/04/25 08:34:43;;;;;;;9.70;5.07;;;9.20;99.90;;;;;;4458758;28;658454;-74
2023/04/25 08:37:32;;;;;;;7.20;5.10;;;9.20;99.90;;;;;;4440376;28;658110;-74
2023/04/25 08:40:19;;;;;;;9.93;5.13;;;9.00;99.90;;;;;;4459218;28;657163;-75
2023/04/25 08:43:11;;;;;;;9.57;4.67;;;8.90;99.90;;;;;;4422480;28;658254;-74
2023/04/25 08:45:59;;;;;;;11.40;6.10;;;9.20;99.90;;;;;;4421693;28;658178;-75
2023/04/25 08:48:46;;;;;;;10.13;4.90;;;9.00;99.90;;;;;;4410327;28;658375;-74
2023/04/25 08:51:34;;;;;;;7.70;5.50;;;8.90;99.90;;;;;;4447133;28;659128;-75
2023/04/25 08:54:25;;;;;;;10.93;6.75;;;9.00;99.90;;;;;;4418435;28;657814;-74
2023/04/25 08:57:13;;;;;;;10.53;6.63;;;8.90;99.90;;;;;;4426347;28;659334;-75
2023/04/25 09:00:00;;;;;;;11.10;6.53;;;9.00;99.90;;;;;;4439826;28;658912;-75
2023/04/25 09:02:47;;;;;;;10.73;7.23;;;9.00;99.90;;;;;;4459111;28;659583;-75
2023/04/25 09:05:36;;;;;;;9.70;5.97;;;9.00;99.90;;;;;;4450706;28;658840;-73
2023/04/25 09:08:23;;;;;;;11.00;6.87;;;9.20;99.90;;;;;;4458651;28;657869;-74
2023/04/25 09:11:12;;;;;;;8.00;6.07;;;9.20;99.90;;;;;;4432031;28;658245;-73
2023/04/25 09:14:13;;;;;;;11.67;5.77;;;9.30;99.90;;;;;;4456365;28;658029;-74
2023/04/25 09:17:02;;;;;;;9.07;5.78;;;9.50;99.90;;;;;;4435066;28;659287;-73
2023/04/25 09:19:50;;;;;;;7.93;5.20;;;9.40;99.90;;;;;;4441266;28;658001;-73
2023/04/25 09:22:38;;;;;;;10.05;5.25;;;9.30;99.90;;;;;;4429481;28;658640;-73
2023/04/25 09:25:25;;;;;;;7.50;5.17;;;9.40;99.90;;;;;;4430743;28;658648;-73
2023/04/25 09:28:14;;;;;;;7.13;4.77;;;9.50;99.90;;;;;;4460199;28;658830;-73
2023/04/25 09:31:02;;;;;;;8.20;4.90;;;9.60;99.90;;;;;;4427259;28;658118;-73
2023/04/25 09:33:49;;;;;;;7.77;5.00;;;9.50;99.90;;;;;;4463770;28;657723;-73
2023/04/25 09:36:36;;;;;;;10.87;5.00;;;9.60;99.90;;;;;;4438647;28;657486;-73
2023/04/25 09:39:25;;;;;;;7.83;4.50;;;9.80;99.90;;;;;;4438259;28;659336;-73
2023/04/25 09:42:12;;;;;;;6.93;4.17;;;10.20;99.90;;;;;;4438697;27;658558;-73
2023/04/25 09:45:02;;;;;;;8.37;4.10;;;10.30;99.90;;;;;;4454853;28;657997;-74
2023/04/25 09:47:49;;;;;;;5.27;3.63;;;10.80;99.90;;;;;;4431265;28;658911;-74
2023/04/25 09:50:37;;;;;;;7.70;3.67;;;11.00;99.90;;;;;;4432961;28;659599;-73
2023/04/25 09:53:24;;;;;;;11.60;4.20;;;10.60;99.90;;;;;;4449959;28;658361;-74
2023/04/25 09:56:12;;;;;;;5.23;3.50;;;10.50;99.90;;;;;;4415765;28;659744;-73
2023/04/25 09:58:59;;;;;;;7.90;4.13;;;10.50;99.90;;;;;;4442228;28;658186;-73
2023/04/25 10:01:48;;;;;;;9.17;4.23;;;10.90;99.90;;;;;;4433219;28;659038;-73
2023/04/25 10:04:36;;;;;;;9.23;3.67;;;11.10;99.90;;;;;;4426552;28;659119;-73
2023/04/25 10:07:25;;;;;;;7.10;3.40;;;11.40;99.90;;;;;;4449262;28;659257;-73
2023/04/25 10:10:13;;;;;;;6.67;4.00;;;11.50;99.90;;;;;;4432384;28;659551;-73
2023/04/25 10:13:00;;;;;;;4.13;3.07;;;11.10;99.90;;;;;;4417728;28;660275;-74
2023/04/25 10:15:48;;;;;;;5.43;3.47;;;11.00;99.90;;;;;;4455393;28;659644;-73
2023/04/25 10:18:37;;;;;;;3.70;3.10;;;10.90;99.90;;;;;;4439282;28;658087;-73
2023/04/25 10:21:24;;;;;;;4.90;3.30;;;11.20;99.90;;;;;;4461224;28;658341;-73
2023/04/25 10:24:11;;;;;;;5.97;4.50;;;11.10;99.90;;;;;;4432718;28;658912;-73
2023/04/25 10:26:59;;;;;;;4.97;3.40;;;11.10;99.90;;;;;;4450925;28;659005;-73
2023/04/25 10:29:46;;;;;;;7.27;3.67;;;10.80;99.90;;;;;;4432125;28;659873;-73
2023/04/25 10:32:33;;;;;;;5.77;3.80;;;10.30;99.90;;;;;;4460671;28;659202;-73
2023/04/25 10:35:27;;;;;;;4.73;3.53;;;10.10;99.90;;;;;;4431831;28;659015;-73
2023/04/25 10:38:15;;;;;;;6.75;3.65;;;10.40;99.90;;;;;;4423041;28;659384;-73
2023/04/25 10:41:08;;;;;;;7.73;3.87;;;10.80;99.90;;;;;;4428179;28;659766;-73
2023/04/25 10:44:00;;;;;;;6.53;3.90;;;11.40;99.90;;;;;;4440132;28;658601;-73
2023/04/25 10:46:48;;;;;;;5.47;3.37;;;11.80;99.90;;;;;;4418520;28;659059;-73
2023/04/25 10:49:36;;;;;;;8.07;3.63;;;12.20;99.90;;;;;;4431741;28;658800;-74
2023/04/25 10:52:28;;;;;;;9.90;4.27;;;12.00;99.90;;;;;;4445706;27;659311;-75
2023/04/25 10:55:15;;;;;;;5.93;3.57;;;12.40;99.90;;;;;;4443156;28;658791;-73
2023/04/25 10:58:02;;;;;;;7.13;3.47;;;12.60;99.90;;;;;;4457224;27;659854;-73
2023/04/25 11:00:50;;;;;;;8.80;3.73;;;12.20;99.90;;;;;;4442756;28;658528;-74
2023/04/25 11:03:41;;;;;;;5.63;3.27;;;12.30;99.90;;;;;;4415510;28;659402;-74
2023/04/25 11:06:31;;;;;;;4.73;3.10;;;12.40;99.90;;;;;;4417655;28;658983;-75
2023/04/25 11:09:20;;;;;;;6.10;2.90;;;12.50;99.90;;;;;;4419668;28;659144;-75
2023/04/25 11:12:16;;;;;;;5.20;2.67;;;12.10;99.90;;;;;;4909710;27;149266;-75
2023/04/25 11:15:04;;;;;;;5.90;2.67;;;12.10;99.90;;;;;;4385330;28;650952;-75
2023/04/25 11:17:52;;;;;;;5.55;2.67;;;11.50;99.90;;;;;;4388697;28;651343;-75
2023/04/25 11:20:39;;;;;;;6.50;2.50;;;11.10;99.90;;;;;;4407385;28;650235;-75
2023/04/25 11:23:27;;;;;;;4.80;2.93;;;11.30;99.90;;;;;;4382959;28;650568;-75
2023/04/25 11:26:14;;;;;;;5.70;2.63;;;11.90;99.90;;;;;;4398779;28;650250;-75
2023/04/25 11:29:03;;;;;;;4.70;2.47;;;11.90;99.90;;;;;;4387019;28;651478;-75
2023/04/25 11:31:51;;;;;;;5.93;2.38;;;11.60;99.90;;;;;;4392333;28;651392;-74
2023/04/25 11:34:38;;;;;;;4.77;2.33;;;11.40;99.90;;;;;;4404583;28;652316;-76
2023/04/25 11:37:26;;;;;;;4.73;2.47;;;11.10;99.90;;;;;;4384681;28;652026;-76
2023/04/25 11:40:14;;;;;;;6.77;2.77;;;10.90;99.90;;;;;;4403840;28;652510;-76
2023/04/25 11:43:01;;;;;;;3.97;2.13;;;11.20;99.90;;;;;;4387641;28;652348;-77
2023/04/25 11:45:50;;;;;;;6.40;2.50;;;11.30;99.90;;;;;;4410897;28;653840;-77
2023/04/25 11:48:40;;;;;;;6.67;2.53;;;10.90;99.90;;;;;;4411177;28;652950;-75
2023/04/25 11:51:27;;;;;;;4.55;2.60;;;11.10;99.90;;;;;;4407887;28;653156;-75
2023/04/25 11:54:15;;;;;;;7.87;2.60;;;11.30;99.90;;;;;;4425598;28;652578;-76
2023/04/25 11:57:03;;;;;;;3.43;2.60;;;11.40;99.90;;;;;;4397957;28;653788;-76
2023/04/25 11:59:50;;;;;;;4.83;2.17;;;11.50;99.90;;;;;;4410938;28;652953;-75
2023/04/25 12:02:41;;;;;;;6.37;2.37;;;11.20;99.90;;;;;;4410434;28;652578;-76
2023/04/25 12:05:29;;;;;;;5.60;2.33;;;11.30;99.90;;;;;;4393093;28;653306;-76
2023/04/25 12:08:17;;;;;;;6.00;2.60;;;11.10;99.90;;;;;;4388980;28;652576;-75
2023/04/25 12:11:04;;;;;;;7.43;2.80;;;10.80;99.90;;;;;;4405435;28;653076;-76
2023/04/25 12:13:53;;;;;;;3.47;2.10;;;10.70;99.90;;;;;;4387898;28;652266;-75
2023/04/25 12:16:43;;;;;;;6.27;2.50;;;10.60;99.90;;;;;;4394334;28;652596;-74
2023/04/25 12:19:34;;;;;;;3.03;1.83;;;10.70;99.90;;;;;;4394393;28;652695;-75
2023/04/25 12:22:22;;;;;;;3.87;2.23;;;10.70;99.90;;;;;;4385719;28;652886;-75
2023/04/25 12:25:10;;;;;;;3.00;2.23;;;10.70;99.90;;;;;;4398052;28;651919;-75
2023/04/25 12:28:10;;;;;;;2.93;2.20;;;10.80;99.90;;;;;;4364459;28;654288;-75
2023/04/25 12:30:59;;;;;;;5.70;2.47;;;10.60;99.90;;;;;;4349671;28;653158;-72
2023/04/25 12:33:47;;;;;;;4.03;2.30;;;10.70;99.90;;;;;;4369821;28;652213;-75
2023/04/25 12:36:36;;;;;;;3.90;2.63;;;10.90;99.90;;;;;;4395482;28;652166;-76
2023/04/25 12:39:24;;;;;;;6.37;2.60;;;11.00;99.90;;;;;;4375123;28;652708;-76
2023/04/25 12:42:12;;;;;;;4.90;2.37;;;10.70;99.90;;;;;;4377734;28;652834;-76
2023/04/25 12:44:59;;;;;;;3.47;2.10;;;10.80;99.90;;;;;;4396145;28;652992;-76
2023/04/25 12:47:46;;;;;;;4.80;2.45;;;10.80;99.90;;;;;;4384150;28;652436;-76
2023/04/25 12:50:33;;;;;;;4.33;2.30;;;10.90;99.90;;;;;;4393949;28;652495;-76
2023/04/25 12:53:23;;;;;;;5.07;2.63;;;11.00;99.90;;;;;;4374011;28;652127;-75
2023/04/25 12:56:11;;;;;;;5.87;2.90;;;10.70;99.90;;;;;;4379135;28;652459;-76
2023/04/25 12:58:58;;;;;;;5.40;2.70;;;10.60;99.90;;;;;;4402346;28;652836;-75
2023/04/25 13:01:45;;;;;;;8.50;2.50;;;10.60;99.90;;;;;;4376690;28;652785;-75
2023/04/25 13:04:33;;;;;;;4.63;2.53;;;10.50;99.90;;;;;;4388396;28;652974;-76
2023/04/25 13:07:20;;;;;;;6.20;2.80;;;10.60;99.90;;;;;;4382305;28;652371;-75
2023/04/25 13:10:09;;;;;;;7.93;2.97;;;10.60;99.90;;;;;;4391214;28;653291;-76
2023/04/25 13:12:56;;;;;;;7.40;2.47;;;10.60;99.90;;;;;;4370649;28;653182;-76
2023/04/25 13:15:44;;;;;;;7.70;2.63;;;10.50;99.90;;;;;;4396928;28;652681;-76
2023/04/25 13:18:31;;;;;;;3.70;2.43;;;10.60;99.90;;;;;;4375776;28;652567;-75
2023/04/25 13:21:18;;;;;;;4.33;2.60;;;10.40;99.90;;;;;;4390242;28;653397;-76
2023/04/25 13:24:06;;;;;;;4.43;2.50;;;10.50;99.90;;;;;;4377649;28;653267;-77
2023/04/25 13:26:55;;;;;;;7.65;2.70;;;10.50;99.90;;;;;;4401748;28;653340;-76
2023/04/25 13:29:42;;;;;;;6.40;2.17;;;10.50;99.90;;;;;;4371330;28;653429;-78
2023/04/25 13:32:29;;;;;;;6.00;2.47;;;10.70;99.90;;;;;;4395598;28;652399;-77
2023/04/25 13:35:18;;;;;;;4.83;2.50;;;10.70;99.90;;;;;;4376773;28;652235;-76
2023/04/25 13:38:05;;;;;;;6.67;2.53;;;10.60;99.90;;;;;;4380808;28;652353;-76
2023/04/25 13:40:53;;;;;;;4.63;2.40;;;10.70;99.90;;;;;;4390622;28;653821;-76
2023/04/25 13:43:42;;;;;;;5.93;2.08;;;10.60;99.90;;;;;;4377935;28;652643;-75
2023/04/25 13:46:29;;;;;;;5.20;2.50;;;10.60;99.90;;;;;;4390498;28;652357;-75
2023/04/25 13:49:16;;;;;;;5.17;2.50;;;10.80;99.90;;;;;;4372932;28;652931;-76
2023/04/25 13:52:03;;;;;;;10.60;2.50;;;10.80;99.90;;;;;;4399558;28;652050;-76
2023/04/25 13:54:51;;;;;;;5.53;2.27;;;10.90;99.90;;;;;;4371543;28;653684;-76
2023/04/25 13:57:38;;;;;;;4.73;2.40;;;10.80;99.90;;;;;;4396860;28;653393;-76
2023/04/25 14:00:27;;;;;;;6.20;2.30;;;10.90;99.90;;;;;;4379694;28;653515;-76
2023/04/25 14:03:14;;;;;;;5.77;2.43;;;10.90;99.90;;;;;;4391092;28;654047;-76
2023/04/25 14:06:01;;;;;;;7.23;2.23;;;10.70;99.90;;;;;;4372395;28;653882;-76
2023/04/25 14:08:48;;;;;;;4.67;1.97;;;10.80;99.90;;;;;;4237220;28;654242;-76
2023/04/25 14:11:35;;;;;;;5.27;2.47;;;10.90;99.90;;;;;;4204903;28;653561;-76
2023/04/25 14:14:23;;;;;;;9.73;2.40;;;11.00;99.90;;;;;;4313559;28;653827;-76
2023/04/25 14:17:12;;;;;;;6.33;2.50;;;11.20;99.90;;;;;;4383834;28;653766;-75
2023/04/25 14:19:59;;;;;;;4.70;2.23;;;11.30;99.90;;;;;;4387696;28;654046;-76